createdAt,value
2019-03-02T00:01:40.652Z,9.70
2019-03-02T00:04:17.325Z,5.47
2019-03-02T00:06:46.497Z,5.57
2019-03-02T00:09:16.585Z,5.73
2019-03-02T00:11:45.543Z,7.03
2019-03-02T00:14:15.811Z,4.50
2019-03-02T00:16:49.189Z,4.63
2019-03-02T00:19:19.084Z,5.40
2019-03-02T00:21:51.033Z,6.47
2019-03-02T00:24:21.482Z,4.87
2019-03-02T00:26:50.550Z,4.77
2019-03-02T00:29:21.320Z,4.50
2019-03-02T00:31:52.349Z,5.73
2019-03-02T00:34:23.675Z,5.73
2019-03-02T00:36:54.893Z,5.00
2019-03-02T00:39:26.378Z,6.93
2019-03-02T00:41:56.472Z,5.33
2019-03-02T00:44:28.134Z,6.87
2019-03-02T00:46:59.611Z,6.10
2019-03-02T00:49:32.896Z,7.50
2019-03-02T00:52:10.930Z,9.10
2019-03-02T00:54:43.412Z,8.90
2019-03-02T00:57:14.789Z,11.87
2019-03-02T00:59:47.645Z,13.83
2019-03-02T01:05:36.335Z,16.63
2019-03-02T01:08:09.759Z,15.97
2019-03-02T01:10:38.982Z,15.23
2019-03-02T01:13:09.411Z,16.10
2019-03-02T01:15:40.718Z,16.17
2019-03-02T01:18:10.055Z,15.20
2019-03-02T01:20:41.231Z,16.60
2019-03-02T01:23:13.089Z,17.17
2019-03-02T01:25:51.241Z,15.17
2019-03-02T01:28:22.003Z,14.93
2019-03-02T01:30:55.086Z,15.40
2019-03-02T01:33:28.600Z,15.07
2019-03-02T01:35:58.912Z,16.40
2019-03-02T01:38:32.471Z,19.70
2019-03-02T01:41:01.754Z,19.47
2019-03-02T01:43:36.813Z,23.40
2019-03-02T01:46:09.991Z,21.13
2019-03-02T01:48:41.138Z,22.37
2019-03-02T01:51:10.441Z,21.00
2019-03-02T01:53:45.626Z,21.57
2019-03-02T01:56:14.607Z,24.87
2019-03-02T01:58:46.982Z,23.17
2019-03-02T02:01:27.739Z,22.13
2019-03-02T02:04:00.106Z,23.33
2019-03-02T02:06:31.945Z,22.90
2019-03-02T02:09:01.730Z,21.90
2019-03-02T02:11:37.080Z,25.07
2019-03-02T02:14:09.563Z,22.23
2019-03-02T02:16:51.913Z,21.30
2019-03-02T02:19:25.453Z,20.93
2019-03-02T02:22:18.994Z,24.13
2019-03-02T02:24:53.100Z,24.60
2019-03-02T02:27:41.169Z,23.70
2019-03-02T02:30:18.954Z,17.83
2019-03-02T02:33:16.835Z,23.53
2019-03-02T02:35:53.098Z,22.20
2019-03-02T02:38:23.226Z,23.70
2019-03-02T02:40:52.364Z,21.30
2019-03-02T02:43:22.465Z,19.33
2019-03-02T02:45:53.630Z,21.73
2019-03-02T02:48:55.038Z,21.67
2019-03-02T02:51:24.215Z,23.00
2019-03-02T02:54:05.815Z,21.30
2019-03-02T02:56:35.788Z,23.60
2019-03-02T02:59:09.968Z,20.87
2019-03-02T03:01:39.533Z,22.07
2019-03-02T03:04:11.031Z,24.37
2019-03-02T03:06:47.467Z,22.57
2019-03-02T03:09:45.428Z,21.00
2019-03-02T03:12:26.951Z,21.20
2019-03-02T03:14:58.506Z,21.13
2019-03-02T03:17:32.455Z,21.27
2019-03-02T03:24:28.554Z,21.77
2019-03-02T03:26:57.699Z,20.47
2019-03-02T03:29:26.990Z,19.30
2019-03-02T03:32:08.232Z,19.37
2019-03-02T03:34:30.153Z,21.20
2019-03-02T03:36:59.486Z,18.67
2019-03-02T03:39:29.079Z,19.77
2019-03-02T03:41:58.446Z,19.93
2019-03-02T03:44:29.156Z,19.10
2019-03-02T03:47:00.738Z,19.17
2019-03-02T03:49:34.266Z,21.63
2019-03-02T03:52:04.045Z,20.90
2019-03-02T03:54:34.738Z,20.63
2019-03-02T03:57:04.242Z,21.80
2019-03-02T03:59:34.221Z,21.73
2019-03-02T04:02:07.045Z,20.37
2019-03-02T04:04:36.092Z,19.00
2019-03-02T04:07:06.285Z,21.67
2019-03-02T04:09:37.536Z,21.23
2019-03-02T04:12:07.007Z,19.53
2019-03-02T04:14:36.130Z,21.63
2019-03-02T04:17:06.427Z,23.20
2019-03-02T04:19:36.196Z,19.53
2019-03-02T04:22:08.088Z,20.60
2019-03-02T04:24:39.844Z,20.00
2019-03-02T04:27:11.107Z,20.97
2019-03-02T04:29:49.078Z,20.73
2019-03-02T04:32:27.074Z,18.40
2019-03-02T04:34:54.397Z,20.93
2019-03-02T04:37:23.853Z,20.77
2019-03-02T04:39:53.604Z,19.50
2019-03-02T04:42:46.515Z,19.07
2019-03-02T04:45:18.470Z,18.63
2019-03-02T04:47:49.684Z,19.10
2019-03-02T04:50:23.510Z,18.80
2019-03-02T04:52:52.739Z,20.07
2019-03-02T04:55:22.707Z,17.43
2019-03-02T04:57:57.666Z,19.87
2019-03-02T05:00:28.602Z,21.00
2019-03-02T05:03:03.379Z,19.27
2019-03-02T05:05:32.673Z,22.67
2019-03-02T05:08:05.164Z,20.47
2019-03-02T05:10:35.021Z,18.40
2019-03-02T05:13:24.710Z,17.83
2019-03-02T05:15:54.080Z,19.77
2019-03-02T05:18:24.301Z,19.77
2019-03-02T05:20:56.469Z,19.77
2019-03-02T05:23:27.585Z,20.07
2019-03-02T05:25:58.194Z,17.10
2019-03-02T05:28:39.654Z,20.73
2019-03-02T05:31:10.350Z,20.00
2019-03-02T05:33:40.282Z,19.03
2019-03-02T05:36:11.610Z,20.63
2019-03-02T05:38:42.630Z,18.37
2019-03-02T05:41:12.055Z,17.93
2019-03-02T05:43:43.300Z,19.70
2019-03-02T05:46:13.648Z,19.20
2019-03-02T05:48:44.287Z,18.37
2019-03-02T05:51:14.968Z,19.77
2019-03-02T05:53:49.606Z,20.37
2019-03-02T05:56:20.363Z,21.20
2019-03-02T05:59:26.615Z,17.30
2019-03-02T06:01:59.542Z,19.60
2019-03-02T06:04:29.775Z,21.97
2019-03-02T06:06:59.625Z,22.03
2019-03-02T06:09:32.911Z,21.60
2019-03-02T06:12:03.720Z,21.43
2019-03-02T06:14:41.525Z,22.70
2019-03-02T06:17:16.023Z,26.83
2019-03-02T06:19:46.237Z,23.00
2019-03-02T06:26:12.644Z,24.70
2019-03-02T06:28:47.599Z,26.20
2019-03-02T06:31:19.177Z,26.07
2019-03-02T06:33:49.777Z,28.73
2019-03-02T06:36:20.199Z,26.67
2019-03-02T06:38:49.707Z,28.70
2019-03-02T06:41:23.477Z,27.53
2019-03-02T06:44:16.532Z,28.00
2019-03-02T06:46:50.581Z,28.90
2019-03-02T06:49:21.227Z,27.83
2019-03-02T06:51:53.557Z,27.73
2019-03-02T06:54:23.042Z,24.73
2019-03-02T06:56:57.748Z,24.57
2019-03-02T06:59:24.466Z,25.97
2019-03-02T07:01:56.563Z,31.10
2019-03-02T07:04:26.616Z,28.30
2019-03-02T07:06:55.732Z,26.30
2019-03-02T07:09:25.941Z,29.57
2019-03-02T07:11:55.950Z,29.10
2019-03-02T07:14:28.920Z,27.83
2019-03-02T07:16:59.197Z,28.27
2019-03-02T07:19:43.680Z,28.70
2019-03-02T07:22:16.841Z,25.10
2019-03-02T07:24:45.966Z,26.57
2019-03-02T07:27:15.729Z,23.80
2019-03-02T07:29:49.855Z,24.90
2019-03-02T07:32:21.143Z,26.63
2019-03-02T07:34:51.146Z,22.67
2019-03-02T07:37:20.490Z,27.30
2019-03-02T07:39:52.355Z,26.37
2019-03-02T07:42:22.628Z,24.93
2019-03-02T07:44:58.571Z,24.90
2019-03-02T07:50:31.126Z,23.03
2019-03-02T07:56:13.573Z,19.07
2019-03-02T07:58:55.023Z,18.00
2019-03-02T08:01:26.092Z,18.57
2019-03-02T08:04:30.579Z,19.40
2019-03-02T08:07:07.063Z,20.17
2019-03-02T08:09:37.198Z,22.90
2019-03-02T08:12:24.942Z,22.33
2019-03-02T08:15:04.627Z,20.77
2019-03-02T08:18:06.457Z,22.53
2019-03-02T08:20:39.536Z,20.70
2019-03-02T08:23:10.458Z,18.73
2019-03-02T08:25:39.657Z,21.83
2019-03-02T08:28:15.321Z,21.43
2019-03-02T08:31:09.835Z,22.23
2019-03-02T08:34:09.783Z,22.97
2019-03-02T08:36:39.047Z,23.77
2019-03-02T08:39:10.734Z,21.50
2019-03-02T08:41:41.452Z,20.13
2019-03-02T08:44:15.590Z,22.40
2019-03-02T08:46:45.723Z,22.73
2019-03-02T08:49:16.914Z,22.27
2019-03-02T08:51:46.511Z,23.67
2019-03-02T08:54:17.883Z,21.33
2019-03-02T08:56:49.047Z,25.33
2019-03-02T08:59:24.133Z,20.27
2019-03-02T09:01:55.838Z,22.77
2019-03-02T09:04:41.869Z,20.27
2019-03-02T09:07:20.807Z,23.63
2019-03-02T09:09:58.142Z,23.77
2019-03-02T09:12:38.877Z,24.40
2019-03-02T09:15:12.805Z,22.57
2019-03-02T09:17:42.567Z,23.03
2019-03-02T09:20:13.490Z,24.13
2019-03-02T09:23:01.641Z,21.20
2019-03-02T09:25:35.307Z,21.40
2019-03-02T09:28:05.953Z,21.67
2019-03-02T09:30:35.879Z,19.23
2019-03-02T09:33:07.450Z,18.27
2019-03-02T09:35:37.841Z,19.57
2019-03-02T09:38:20.802Z,22.93
2019-03-02T09:40:50.130Z,24.03
2019-03-02T09:43:36.935Z,25.43
2019-03-02T09:46:07.559Z,21.70
2019-03-02T09:48:48.313Z,24.93
2019-03-02T09:51:17.891Z,28.17
2019-03-02T09:53:49.798Z,26.70
2019-03-02T09:56:21.668Z,28.93
2019-03-02T09:58:51.930Z,25.10
2019-03-02T10:01:22.712Z,26.83
2019-03-02T10:03:58.874Z,24.93
2019-03-02T10:06:36.653Z,28.20
2019-03-02T10:09:15.157Z,25.60
2019-03-02T10:11:49.286Z,31.13
2019-03-02T10:17:56.418Z,30.53
2019-03-02T10:20:38.966Z,31.00
2019-03-02T10:23:46.893Z,30.00
2019-03-02T10:26:17.578Z,29.73
2019-03-02T10:28:57.480Z,34.47
2019-03-02T10:31:31.771Z,31.80
2019-03-02T10:34:06.416Z,31.63
2019-03-02T10:36:39.944Z,31.00
2019-03-02T10:39:11.697Z,30.33
2019-03-02T10:41:45.140Z,29.63
2019-03-02T10:44:46.089Z,26.83
2019-03-02T10:47:21.354Z,27.33
2019-03-02T10:50:00.638Z,27.77
2019-03-02T10:52:38.078Z,24.57
2019-03-02T10:55:25.738Z,22.40
2019-03-02T10:58:25.225Z,23.30
2019-03-02T11:01:07.144Z,23.90
2019-03-02T11:03:40.986Z,23.67
2019-03-02T11:09:40.736Z,24.23
2019-03-02T11:13:03.890Z,17.07
2019-03-02T11:16:00.185Z,18.23
2019-03-02T11:18:53.737Z,15.17
2019-03-02T11:21:45.386Z,16.13
2019-03-02T11:24:46.204Z,17.83
2019-03-02T11:27:45.790Z,16.40
2019-03-02T11:30:43.539Z,14.83
2019-03-02T11:33:51.102Z,13.83
2019-03-02T11:36:49.389Z,16.57
2019-03-02T11:42:54.770Z,14.30
2019-03-02T11:45:54.362Z,15.33
2019-03-02T11:48:56.893Z,18.33
2019-03-02T11:52:02.047Z,16.40
2019-03-02T11:54:49.360Z,16.30
2019-03-02T12:00:40.424Z,17.70
2019-03-02T12:03:18.121Z,17.70
2019-03-02T12:06:11.326Z,17.40
2019-03-02T12:09:04.479Z,19.73
2019-03-02T12:11:48.537Z,19.00
2019-03-02T12:14:47.172Z,16.03
2019-03-02T12:17:32.788Z,17.90
2019-03-02T12:20:41.268Z,18.07
2019-03-02T12:23:37.482Z,16.20
2019-03-02T12:26:24.076Z,16.23
2019-03-02T12:29:28.014Z,19.60
2019-03-02T12:32:21.330Z,17.50
2019-03-02T12:35:01.243Z,17.50
2019-03-02T12:37:55.767Z,18.67
2019-03-02T12:40:48.334Z,18.87
2019-03-02T12:43:49.294Z,18.43
2019-03-02T12:46:48.038Z,17.10
2019-03-02T12:49:39.376Z,16.20
2019-03-02T12:52:40.277Z,17.83
2019-03-02T12:55:35.905Z,14.07
2019-03-02T12:58:24.060Z,16.97
2019-03-02T13:01:33.973Z,14.80
2019-03-02T13:04:46.581Z,18.80
2019-03-02T13:07:50.705Z,13.67
2019-03-02T13:10:55.294Z,10.43
2019-03-02T13:13:36.476Z,14.37
2019-03-02T13:16:25.784Z,15.53
2019-03-02T13:19:02.883Z,12.43
2019-03-02T13:21:55.969Z,12.30
2019-03-02T13:24:59.209Z,14.80
2019-03-02T13:27:47.263Z,14.23
2019-03-02T13:30:33.449Z,14.33
2019-03-02T13:33:25.118Z,17.37
2019-03-02T13:36:16.859Z,15.93
2019-03-02T13:39:14.382Z,14.63
2019-03-02T13:42:09.267Z,14.43
2019-03-02T13:45:19.197Z,15.23
2019-03-02T13:48:02.733Z,18.00
2019-03-02T13:51:04.470Z,14.97
2019-03-02T13:53:53.561Z,12.30
2019-03-02T13:56:35.177Z,16.77
2019-03-02T13:59:16.896Z,12.47
2019-03-02T14:02:04.129Z,12.67
2019-03-02T14:05:15.847Z,13.10
2019-03-02T14:08:21.269Z,12.67
2019-03-02T14:11:13.387Z,10.90
2019-03-02T14:14:03.620Z,11.23
2019-03-02T14:17:03.269Z,13.33
2019-03-02T14:19:49.882Z,12.90
2019-03-02T14:22:41.286Z,13.80
2019-03-02T14:25:38.677Z,12.43
2019-03-02T14:28:43.159Z,12.67
2019-03-02T14:31:41.344Z,12.10
2019-03-02T14:34:49.002Z,12.17
2019-03-02T14:37:52.322Z,13.13
2019-03-02T14:40:47.238Z,10.40
2019-03-02T14:43:35.897Z,13.90
2019-03-02T14:46:28.394Z,14.00
2019-03-02T14:49:24.406Z,9.50
2019-03-02T14:52:16.369Z,12.33
2019-03-02T14:55:06.083Z,14.73
2019-03-02T14:57:56.720Z,10.87
2019-03-02T15:00:53.117Z,11.60
2019-03-02T15:03:43.087Z,12.93
2019-03-02T15:06:47.867Z,14.30
2019-03-02T15:09:36.735Z,16.37
2019-03-02T15:12:34.025Z,13.33
2019-03-02T15:15:27.986Z,13.70
2019-03-02T15:18:16.912Z,13.47
2019-03-02T15:21:22.663Z,16.67
2019-03-02T15:24:17.283Z,14.53
2019-03-02T15:26:57.045Z,15.50
2019-03-02T15:29:57.244Z,12.77
2019-03-02T15:32:42.833Z,15.47
2019-03-02T15:35:25.430Z,14.73
2019-03-02T15:38:36.246Z,14.20
2019-03-02T15:41:34.038Z,17.30
2019-03-02T15:44:21.211Z,15.07
2019-03-02T15:47:13.734Z,16.63
2019-03-02T15:50:06.375Z,15.13
2019-03-02T15:52:45.049Z,13.73
2019-03-02T15:55:34.138Z,14.27
2019-03-02T15:58:26.710Z,17.90
2019-03-02T16:01:15.175Z,15.00
2019-03-02T16:04:09.726Z,14.87
2019-03-02T16:06:47.988Z,14.77
2019-03-02T16:09:32.469Z,15.20
2019-03-02T16:12:30.384Z,17.53
2019-03-02T16:15:18.224Z,15.87
2019-03-02T16:17:54.884Z,18.27
2019-03-02T16:20:46.613Z,15.73
2019-03-02T16:23:23.975Z,11.50
2019-03-02T16:26:07.573Z,12.23
2019-03-02T16:29:04.886Z,14.80
2019-03-02T16:32:04.070Z,14.70
2019-03-02T16:35:24.844Z,18.27
2019-03-02T16:38:08.144Z,16.03
2019-03-02T16:40:58.074Z,14.87
2019-03-02T16:43:46.963Z,12.83
2019-03-02T16:46:26.485Z,14.63
2019-03-02T16:49:19.623Z,14.83
2019-03-02T16:52:10.213Z,12.43
2019-03-02T16:55:06.079Z,12.00
2019-03-02T16:58:10.425Z,19.00
2019-03-02T17:01:01.145Z,14.23
2019-03-02T17:03:50.364Z,16.40
2019-03-02T17:06:28.233Z,13.47
2019-03-02T17:09:16.641Z,13.90
2019-03-02T17:12:20.726Z,14.77
2019-03-02T17:15:12.160Z,13.70
2019-03-02T17:18:12.338Z,13.27
2019-03-02T17:20:47.271Z,14.03
2019-03-02T17:23:32.045Z,16.33
2019-03-02T17:26:31.370Z,14.60
2019-03-02T17:29:21.721Z,13.83
2019-03-02T17:32:04.912Z,11.87
2019-03-02T17:35:03.326Z,11.07
2019-03-02T17:37:51.498Z,12.80
2019-03-02T17:40:43.418Z,16.93
2019-03-02T17:43:40.440Z,13.37
2019-03-02T17:46:36.735Z,13.63
2019-03-02T17:49:31.483Z,11.13
2019-03-02T17:52:32.182Z,14.47
2019-03-02T17:55:32.025Z,13.60
2019-03-02T17:58:19.656Z,11.57
2019-03-02T18:01:18.982Z,18.83
2019-03-02T18:04:12.147Z,10.97
2019-03-02T18:07:03.637Z,9.97
2019-03-02T18:10:01.056Z,16.00
2019-03-02T18:12:50.202Z,8.77
2019-03-02T18:15:46.790Z,10.50
2019-03-02T18:18:21.482Z,7.40
2019-03-02T18:20:52.808Z,9.33
2019-03-02T18:23:23.568Z,10.37
2019-03-02T18:25:55.176Z,8.87
2019-03-02T18:28:25.407Z,7.93
2019-03-02T18:31:02.891Z,10.13
2019-03-02T18:34:00.067Z,8.93
2019-03-02T18:39:46.682Z,8.40
2019-03-02T18:42:17.231Z,10.33
2019-03-02T18:44:46.492Z,8.43
2019-03-02T18:47:19.281Z,11.97
2019-03-02T18:49:59.925Z,8.83
2019-03-02T18:52:56.975Z,9.33
2019-03-02T18:55:27.112Z,11.40
2019-03-02T18:58:00.493Z,11.93
2019-03-02T19:00:37.802Z,11.43
2019-03-02T19:03:16.606Z,8.20
2019-03-02T19:05:50.104Z,7.60
2019-03-02T19:08:22.753Z,7.57
2019-03-02T19:11:02.092Z,7.83
2019-03-02T19:13:45.953Z,9.67
2019-03-02T19:16:25.023Z,8.93
2019-03-02T19:19:03.795Z,7.43
2019-03-02T19:21:37.395Z,4.60
2019-03-02T19:24:11.729Z,5.70
2019-03-02T19:26:43.253Z,7.43
2019-03-02T19:29:32.936Z,7.33
2019-03-02T19:32:03.306Z,6.47
2019-03-02T19:34:33.294Z,8.57
2019-03-02T19:37:03.639Z,11.93
2019-03-02T19:39:39.144Z,5.03
2019-03-02T19:42:08.742Z,5.90
2019-03-02T19:44:39.134Z,6.83
2019-03-02T19:47:08.092Z,6.87
2019-03-02T19:49:40.398Z,6.87
2019-03-02T19:52:12.845Z,5.43
2019-03-02T19:54:45.542Z,10.23
2019-03-02T19:57:25.965Z,9.63
2019-03-02T19:59:58.719Z,7.63
2019-03-02T20:02:29.229Z,7.13
2019-03-02T20:05:01.630Z,6.83
2019-03-02T20:07:34.861Z,6.37
2019-03-02T20:10:04.838Z,7.27
2019-03-02T20:12:41.831Z,6.43
2019-03-02T20:15:16.424Z,6.43
2019-03-02T20:17:46.626Z,8.00
2019-03-02T20:20:18.912Z,6.70
2019-03-02T20:22:48.118Z,6.43
2019-03-02T20:25:18.222Z,6.50
2019-03-02T20:27:48.642Z,5.43
2019-03-02T20:30:18.529Z,7.83
2019-03-02T20:32:47.825Z,8.87
2019-03-02T20:35:19.208Z,8.60
2019-03-02T20:37:48.910Z,8.80
2019-03-02T20:40:19.779Z,7.20
2019-03-02T20:42:50.717Z,10.90
2019-03-02T20:45:21.677Z,6.40
2019-03-02T20:47:50.993Z,7.37
2019-03-02T20:50:22.263Z,6.53
2019-03-02T20:52:51.984Z,8.03
2019-03-02T20:55:21.120Z,6.97
2019-03-02T20:57:53.346Z,8.23
2019-03-02T21:00:24.655Z,7.17
2019-03-02T21:02:54.527Z,10.53
2019-03-02T21:05:23.812Z,9.63
2019-03-02T21:07:54.227Z,8.77
2019-03-02T21:10:27.137Z,7.00
2019-03-02T21:12:56.931Z,7.63
2019-03-02T21:15:32.302Z,6.73
2019-03-02T21:18:01.335Z,7.93
2019-03-02T21:20:32.433Z,6.83
2019-03-02T21:23:06.785Z,5.93
2019-03-02T21:25:35.797Z,8.13
2019-03-02T21:28:05.123Z,7.43
2019-03-02T21:30:36.931Z,6.20
2019-03-02T21:33:06.674Z,5.63
2019-03-02T21:35:39.840Z,5.67
2019-03-02T21:38:11.185Z,6.17
2019-03-02T21:40:42.226Z,5.40
2019-03-02T21:43:22.906Z,6.50
2019-03-02T21:46:02.495Z,4.70
2019-03-02T21:48:55.710Z,4.50
2019-03-02T21:51:29.257Z,6.67
2019-03-02T21:54:02.148Z,4.87
2019-03-02T21:56:31.116Z,4.90
2019-03-02T21:59:05.121Z,5.23
2019-03-02T22:01:34.025Z,6.77
2019-03-02T22:04:05.350Z,6.40
2019-03-02T22:06:44.568Z,6.43
2019-03-02T22:09:15.434Z,7.70
2019-03-02T22:11:47.862Z,8.57
2019-03-02T22:14:20.954Z,8.13
2019-03-02T22:16:50.015Z,10.03
2019-03-02T22:19:25.866Z,10.47
2019-03-02T22:21:58.688Z,9.67
2019-03-02T22:24:34.735Z,12.80
2019-03-02T22:27:03.940Z,13.50
2019-03-02T22:29:33.878Z,12.37
2019-03-02T22:32:07.302Z,14.03
2019-03-02T22:34:36.545Z,13.87
2019-03-02T22:37:07.486Z,11.50
2019-03-02T22:39:36.733Z,13.57
2019-03-02T22:42:05.689Z,11.30
2019-03-02T22:44:34.941Z,11.33
2019-03-02T22:47:07.006Z,11.33
2019-03-02T22:49:36.078Z,12.00
2019-03-02T22:52:05.006Z,10.47
2019-03-02T22:54:35.009Z,12.47
2019-03-02T22:57:04.293Z,10.53
2019-03-02T22:59:33.645Z,13.40
2019-03-02T23:02:21.743Z,10.57
2019-03-02T23:04:51.634Z,11.70
2019-03-02T23:07:21.967Z,11.07
2019-03-02T23:09:51.889Z,11.03
2019-03-02T23:12:22.727Z,8.97
2019-03-02T23:14:59.164Z,9.87
2019-03-02T23:17:28.346Z,9.67
2019-03-02T23:19:59.785Z,13.27
2019-03-02T23:22:33.921Z,10.37
2019-03-02T23:25:03.382Z,10.93
2019-03-02T23:27:38.246Z,9.40
2019-03-02T23:30:07.994Z,10.50
2019-03-02T23:32:43.876Z,10.20
2019-03-02T23:35:14.398Z,9.40
2019-03-02T23:37:43.793Z,12.13
2019-03-02T23:40:12.902Z,11.90
2019-03-02T23:42:52.163Z,12.63
2019-03-02T23:45:30.698Z,11.17
2019-03-02T23:48:01.707Z,11.80
2019-03-02T23:50:36.058Z,11.30
2019-03-02T23:53:03.171Z,12.70
2019-03-02T23:55:32.459Z,13.37
2019-03-02T23:58:02.415Z,13.93
